createdAt,value
2023-05-20T00:02:09.498Z,10.0
2023-05-20T00:05:10.914Z,10.1
2023-05-20T00:08:09.711Z,10.1
2023-05-20T00:11:09.771Z,10.1
2023-05-20T00:14:09.539Z,10.0
2023-05-20T00:17:10.085Z,9.9
2023-05-20T00:20:09.726Z,9.9
2023-05-20T00:23:09.473Z,9.9
2023-05-20T00:26:09.776Z,10.0
2023-05-20T00:29:09.602Z,9.9
2023-05-20T00:32:09.703Z,9.9
2023-05-20T00:35:09.760Z,9.9
2023-05-20T00:38:09.592Z,9.9
2023-05-20T00:41:09.609Z,9.8
2023-05-20T00:44:09.473Z,9.8
2023-05-20T00:47:10.296Z,9.7
2023-05-20T00:50:09.506Z,9.6
2023-05-20T00:53:09.567Z,9.6
2023-05-20T00:56:09.540Z,9.5
2023-05-20T00:59:09.512Z,9.5
2023-05-20T01:02:09.883Z,9.5
2023-05-20T01:05:10.310Z,9.5
2023-05-20T01:08:09.480Z,9.5
2023-05-20T01:11:09.474Z,9.4
2023-05-20T01:14:09.718Z,9.4
2023-05-20T01:17:10.043Z,9.4
2023-05-20T01:20:09.720Z,9.4
2023-05-20T01:23:09.696Z,9.5
2023-05-20T01:26:09.728Z,9.5
2023-05-20T01:29:09.636Z,9.5
2023-05-20T01:32:09.757Z,9.5
2023-05-20T01:35:09.568Z,9.4
2023-05-20T01:38:09.565Z,9.4
2023-05-20T01:41:09.581Z,9.3
2023-05-20T01:44:09.576Z,9.3
2023-05-20T01:47:10.037Z,9.2
2023-05-20T01:50:09.556Z,9.3
2023-05-20T01:53:09.575Z,9.3
2023-05-20T01:56:09.711Z,9.3
2023-05-20T01:59:19.402Z,9.3
2023-05-20T02:02:09.944Z,9.3
2023-05-20T02:05:09.634Z,9.3
2023-05-20T02:08:09.780Z,9.3
2023-05-20T02:11:09.519Z,9.4
2023-05-20T02:14:09.611Z,9.3
2023-05-20T02:17:09.789Z,9.3
2023-05-20T02:20:09.785Z,9.3
2023-05-20T02:23:09.534Z,9.2
2023-05-20T02:26:09.686Z,9.2
2023-05-20T02:29:09.676Z,9.3
2023-05-20T02:32:09.738Z,9.2
2023-05-20T02:35:09.986Z,9.2
2023-05-20T02:38:09.437Z,9.2
2023-05-20T02:41:09.540Z,9.1
2023-05-20T02:44:09.575Z,9.2
2023-05-20T02:47:09.891Z,9.1
2023-05-20T02:50:09.636Z,9.1
2023-05-20T02:53:09.468Z,9.0
2023-05-20T02:56:09.563Z,8.9
2023-05-20T02:59:11.895Z,8.9
2023-05-20T03:02:09.871Z,9.0
2023-05-20T03:05:09.820Z,9.1
2023-05-20T03:08:09.699Z,9.1
2023-05-20T03:11:09.655Z,9.3
2023-05-20T03:14:09.692Z,9.5
2023-05-20T03:17:09.795Z,9.5
2023-05-20T03:20:09.775Z,9.6
2023-05-20T03:23:09.623Z,9.6
2023-05-20T03:26:09.665Z,9.6
2023-05-20T03:29:09.536Z,9.6
2023-05-20T03:32:10.775Z,9.5
2023-05-20T03:35:09.626Z,9.4
2023-05-20T03:38:09.613Z,9.4
2023-05-20T03:41:09.529Z,9.3
2023-05-20T03:44:09.587Z,9.2
2023-05-20T03:47:10.104Z,9.1
2023-05-20T03:50:09.540Z,9.1
2023-05-20T03:53:09.597Z,9.1
2023-05-20T03:56:09.637Z,9.0
2023-05-20T03:59:14.905Z,9.0
2023-05-20T04:02:10.692Z,9.0
2023-05-20T04:05:10.187Z,9.1
2023-05-20T04:08:09.619Z,9.0
2023-05-20T04:11:09.682Z,9.0
2023-05-20T04:14:09.432Z,9.0
2023-05-20T04:17:10.158Z,9.1
2023-05-20T04:20:09.821Z,9.2
2023-05-20T04:23:09.556Z,9.5
2023-05-20T04:26:09.841Z,9.6
2023-05-20T04:29:09.555Z,10.1
2023-05-20T04:32:09.717Z,10.3
2023-05-20T04:35:09.529Z,10.8
2023-05-20T04:38:09.751Z,11.5
2023-05-20T04:41:09.640Z,12.0
2023-05-20T04:44:09.499Z,12.7
2023-05-20T04:47:10.945Z,13.5
2023-05-20T04:50:09.639Z,13.5
2023-05-20T04:53:09.588Z,14.1
2023-05-20T04:56:09.479Z,14.5
2023-05-20T04:59:10.174Z,15.2
2023-05-20T05:02:09.954Z,16.1
2023-05-20T05:05:11.528Z,15.5
2023-05-20T05:08:09.589Z,15.3
2023-05-20T05:11:11.702Z,16.2
2023-05-20T05:14:09.501Z,16.9
2023-05-20T05:17:12.041Z,17.4
2023-05-20T05:20:09.835Z,17.3
2023-05-20T05:23:09.533Z,17.9
2023-05-20T05:26:09.552Z,18.1
2023-05-20T05:29:11.584Z,18.1
2023-05-20T05:32:09.787Z,17.6
2023-05-20T05:35:09.847Z,17.2
2023-05-20T05:38:09.578Z,17.1
2023-05-20T05:41:09.565Z,16.8
2023-05-20T05:44:09.542Z,16.2
2023-05-20T05:47:10.992Z,15.5
2023-05-20T05:50:09.663Z,15.9
2023-05-20T05:53:09.682Z,15.7
2023-05-20T05:56:09.536Z,15.6
2023-05-20T05:59:09.866Z,15.4
2023-05-20T06:02:09.996Z,15.5
2023-05-20T06:05:10.319Z,15.8
2023-05-20T06:08:09.526Z,15.3
2023-05-20T06:11:09.539Z,15.3
2023-05-20T06:14:09.579Z,14.6
2023-05-20T06:17:09.968Z,14.0
2023-05-20T06:20:09.899Z,13.7
2023-05-20T06:23:09.561Z,13.4
2023-05-20T06:26:09.592Z,13.5
2023-05-20T06:29:09.454Z,14.1
2023-05-20T06:32:09.749Z,14.0
2023-05-20T06:35:09.523Z,14.0
2023-05-20T06:38:10.829Z,14.1
2023-05-20T06:41:09.605Z,14.1
2023-05-20T06:44:09.836Z,14.1
2023-05-20T06:47:10.008Z,14.1
2023-05-20T06:50:09.960Z,14.1
2023-05-20T06:53:09.629Z,14.2
2023-05-20T06:56:09.602Z,14.0
2023-05-20T06:59:09.554Z,14.1
2023-05-20T07:02:09.772Z,14.1
2023-05-20T07:05:09.943Z,14.2
2023-05-20T07:08:09.461Z,14.1
2023-05-20T07:11:09.623Z,14.1
2023-05-20T07:14:11.386Z,14.0
2023-05-20T07:17:11.090Z,14.0
2023-05-20T07:20:09.692Z,14.0
2023-05-20T07:23:09.516Z,13.8
2023-05-20T07:26:09.464Z,13.9
2023-05-20T07:29:09.538Z,13.8
2023-05-20T07:32:09.746Z,13.7
2023-05-20T07:35:09.504Z,13.8
2023-05-20T07:38:09.530Z,13.8
2023-05-20T07:41:13.428Z,14.2
2023-05-20T07:44:09.534Z,14.7
2023-05-20T07:47:10.259Z,14.8
2023-05-20T07:50:09.622Z,14.8
2023-05-20T07:53:19.493Z,14.7
2023-05-20T07:56:09.533Z,14.9
2023-05-20T07:59:09.447Z,15.1
2023-05-20T08:02:09.794Z,15.3
2023-05-20T08:05:10.408Z,15.2
2023-05-20T08:08:09.693Z,15.1
2023-05-20T08:11:09.518Z,15.0
2023-05-20T08:14:09.543Z,14.9
2023-05-20T08:17:11.229Z,14.8
2023-05-20T08:20:09.836Z,14.7
2023-05-20T08:23:09.506Z,14.6
2023-05-20T08:26:09.695Z,14.5
2023-05-20T08:29:09.495Z,14.5
2023-05-20T08:32:10.620Z,14.4
2023-05-20T08:35:09.523Z,14.3
2023-05-20T08:38:09.584Z,14.3
2023-05-20T08:41:09.605Z,14.5
2023-05-20T08:44:09.551Z,14.8
2023-05-20T08:47:10.321Z,14.7
2023-05-20T08:50:09.613Z,14.6
2023-05-20T09:41:09.422Z,10.5
2023-05-20T09:44:12.320Z,10.2
2023-05-20T09:47:10.148Z,11.8
2023-05-20T09:50:11.122Z,12.5
2023-05-20T09:53:10.020Z,12.9
2023-05-20T09:56:09.884Z,13.6
2023-05-20T09:59:09.589Z,13.5
2023-05-20T10:02:10.001Z,13.7
2023-05-20T10:05:10.337Z,13.8
2023-05-20T10:08:19.354Z,13.8
2023-05-20T10:11:09.466Z,13.3
2023-05-20T10:14:09.610Z,13.4
2023-05-20T10:17:09.856Z,13.6
2023-05-20T10:20:09.762Z,13.5
2023-05-20T10:23:09.551Z,13.3
2023-05-20T10:26:12.038Z,13.6
2023-05-20T10:29:11.535Z,14.0
2023-05-20T10:32:09.960Z,14.0
2023-05-20T10:35:10.280Z,13.8
2023-05-20T10:38:09.572Z,13.9
2023-05-20T10:41:09.461Z,14.2
2023-05-20T10:44:10.692Z,14.5
2023-05-20T10:47:36.594Z,14.8
2023-05-20T10:50:13.594Z,14.8
2023-05-20T10:53:13.162Z,14.7
2023-05-20T10:56:12.350Z,14.9
2023-05-20T10:59:09.673Z,14.8
2023-05-20T11:02:14.551Z,14.5
2023-05-20T11:05:10.174Z,14.4
2023-05-20T11:08:24.549Z,14.7
2023-05-20T11:11:09.592Z,14.3
2023-05-20T11:14:10.688Z,13.8
2023-05-20T11:17:09.840Z,14.2
2023-05-20T11:20:12.157Z,14.8
2023-05-20T11:23:09.655Z,15.0
2023-05-20T11:26:09.643Z,14.6
2023-05-20T11:29:09.738Z,14.8
2023-05-20T11:32:09.840Z,15.0
2023-05-20T11:35:14.844Z,15.0
2023-05-20T11:38:19.776Z,14.7
2023-05-20T11:41:19.363Z,15.0
2023-05-20T11:44:09.523Z,14.9
2023-05-20T11:47:10.932Z,15.3
2023-05-20T11:50:09.663Z,15.4
2023-05-20T11:53:11.287Z,15.0
2023-05-20T11:56:09.589Z,14.6
2023-05-20T11:59:09.534Z,14.8
2023-05-20T12:05:10.954Z,15.0
2023-05-20T12:08:10.582Z,15.1
2023-05-20T12:11:09.604Z,14.9
2023-05-20T12:14:09.521Z,15.1
2023-05-20T12:17:09.955Z,15.2
2023-05-20T12:20:11.998Z,15.0
2023-05-20T12:23:09.610Z,14.8
2023-05-20T12:26:09.576Z,15.0
2023-05-20T12:29:09.486Z,14.9
2023-05-20T12:32:09.896Z,14.6
2023-05-20T12:35:09.615Z,14.7
2023-05-20T12:38:09.559Z,14.9
2023-05-20T12:41:10.313Z,15.1
2023-05-20T12:44:10.129Z,15.0
2023-05-20T12:47:09.925Z,15.1
2023-05-20T12:50:09.632Z,15.5
2023-05-20T12:53:16.269Z,15.0
2023-05-20T12:56:09.432Z,15.4
2023-05-20T12:59:09.610Z,15.0
2023-05-20T13:02:10.490Z,15.3
2023-05-20T13:05:11.808Z,15.8
2023-05-20T13:08:09.522Z,16.1
2023-05-20T13:11:10.286Z,16.3
2023-05-20T13:14:09.558Z,16.2
2023-05-20T13:17:09.953Z,16.2
2023-05-20T13:20:09.820Z,16.0
2023-05-20T13:23:09.502Z,16.1
2023-05-20T13:26:09.534Z,16.1
2023-05-20T13:29:09.485Z,16.5
2023-05-20T13:32:10.106Z,16.7
2023-05-20T13:35:09.691Z,17.0
2023-05-20T13:38:09.598Z,16.9
2023-05-20T13:41:09.605Z,16.8
2023-05-20T13:44:09.546Z,16.1
2023-05-20T13:47:09.769Z,16.1
2023-05-20T13:50:09.504Z,16.1
2023-05-20T13:53:09.458Z,15.9
2023-05-20T13:56:11.833Z,16.2
2023-05-20T13:59:09.502Z,16.2
2023-05-20T14:02:13.737Z,16.3
2023-05-20T14:05:14.861Z,16.5
2023-05-20T14:08:10.732Z,16.5
2023-05-20T14:11:09.866Z,16.5
2023-05-20T14:14:11.400Z,16.6
2023-05-20T14:17:09.714Z,16.5
2023-05-20T14:20:11.809Z,16.1
2023-05-20T14:23:09.557Z,16.2
2023-05-20T14:26:09.463Z,16.0
2023-05-20T14:29:09.527Z,16.1
2023-05-20T14:32:13.264Z,15.9
2023-05-20T14:35:09.758Z,15.8
2023-05-20T14:38:09.521Z,15.9
2023-05-20T14:41:09.970Z,15.9
2023-05-20T14:44:09.618Z,16.2
2023-05-20T14:47:09.683Z,15.8
2023-05-20T14:50:09.685Z,15.8
2023-05-20T14:53:09.548Z,16.0
2023-05-20T14:56:09.543Z,16.3
2023-05-20T14:59:09.779Z,16.6
2023-05-20T15:02:10.364Z,16.5
2023-05-20T15:05:10.121Z,16.7
2023-05-20T15:08:09.542Z,16.8
2023-05-20T15:11:10.071Z,16.7
2023-05-20T15:14:12.436Z,17.2
2023-05-20T15:17:09.836Z,17.4
2023-05-20T15:20:12.799Z,16.8
2023-05-20T15:23:09.535Z,16.4
2023-05-20T15:26:09.665Z,16.1
2023-05-20T15:29:09.654Z,16.2
2023-05-20T15:32:09.893Z,16.4
2023-05-20T15:35:12.001Z,16.4
2023-05-20T15:38:09.495Z,16.1
2023-05-20T15:41:09.522Z,15.7
2023-05-20T15:44:09.497Z,15.6
2023-05-20T15:47:09.839Z,15.7
2023-05-20T15:50:09.809Z,15.9
2023-05-20T15:53:19.594Z,15.8
2023-05-20T15:56:09.473Z,15.9
2023-05-20T15:59:09.699Z,16.2
2023-05-20T16:02:12.580Z,16.3
2023-05-20T16:05:10.911Z,16.4
2023-05-20T16:08:09.609Z,16.4
2023-05-20T16:11:09.983Z,16.4
2023-05-20T16:14:09.560Z,16.4
2023-05-20T16:17:09.842Z,15.9
2023-05-20T16:20:10.105Z,16.1
2023-05-20T16:23:09.500Z,15.8
2023-05-20T16:26:09.522Z,15.6
2023-05-20T16:29:09.587Z,15.6
2023-05-20T16:32:10.214Z,15.6
2023-05-20T16:35:09.698Z,15.8
2023-05-20T16:38:09.530Z,15.6
2023-05-20T16:41:09.557Z,15.8
2023-05-20T16:44:09.517Z,15.9
2023-05-20T16:47:10.574Z,16.0
2023-05-20T16:50:09.611Z,16.0
2023-05-20T16:53:09.718Z,16.0
2023-05-20T16:56:09.623Z,15.9
2023-05-20T16:59:09.640Z,15.6
2023-05-20T17:02:10.285Z,15.5
2023-05-20T17:05:09.916Z,15.4
2023-05-20T17:08:09.531Z,15.1
2023-05-20T17:11:10.535Z,15.1
2023-05-20T17:14:09.577Z,15.5
2023-05-20T17:17:09.859Z,15.8
2023-05-20T17:20:09.763Z,15.8
2023-05-20T17:23:09.644Z,15.6
2023-05-20T17:26:09.557Z,15.5
2023-05-20T17:29:09.499Z,15.3
2023-05-20T17:32:09.923Z,14.8
2023-05-20T17:35:10.014Z,14.7
2023-05-20T17:38:09.501Z,14.9
2023-05-20T17:41:09.945Z,15.0
2023-05-20T17:44:09.556Z,15.1
2023-05-20T17:47:09.761Z,15.1
2023-05-20T17:50:09.802Z,15.2
2023-05-20T17:53:09.536Z,14.9
2023-05-20T17:56:09.578Z,14.6
2023-05-20T17:59:12.093Z,14.7
2023-05-20T18:02:09.929Z,14.8
2023-05-20T18:05:10.985Z,14.8
2023-05-20T18:08:09.621Z,14.9
2023-05-20T18:11:09.715Z,15.0
2023-05-20T18:14:09.552Z,15.0
2023-05-20T18:17:09.965Z,15.0
2023-05-20T18:20:10.091Z,15.1
2023-05-20T18:23:09.539Z,15.1
2023-05-20T18:26:09.601Z,15.1
2023-05-20T18:29:09.483Z,15.4
2023-05-20T18:32:10.082Z,15.6
2023-05-20T18:35:09.637Z,15.6
2023-05-20T18:38:09.565Z,15.4
2023-05-20T18:41:09.912Z,15.1
2023-05-20T18:44:09.490Z,15.2
2023-05-20T18:47:09.850Z,15.3
2023-05-20T18:50:18.651Z,15.2
2023-05-20T18:53:09.553Z,15.0
2023-05-20T18:56:09.606Z,15.1
2023-05-20T18:59:09.491Z,14.7
2023-05-20T19:02:09.782Z,14.6
2023-05-20T19:05:09.865Z,14.6
2023-05-20T19:08:09.654Z,14.5
2023-05-20T19:11:09.490Z,14.6
2023-05-20T19:14:09.473Z,14.7
2023-05-20T19:17:09.685Z,14.7
2023-05-20T19:20:09.848Z,14.7
2023-05-20T19:23:09.541Z,14.7
2023-05-20T19:26:09.934Z,14.7
2023-05-20T19:29:09.594Z,14.8
2023-05-20T19:32:09.959Z,14.8
2023-05-20T19:35:09.618Z,14.8
2023-05-20T19:38:11.514Z,14.7
2023-05-20T19:41:09.836Z,14.8
2023-05-20T19:44:11.983Z,14.9
2023-05-20T19:47:09.713Z,14.9
2023-05-20T19:50:09.666Z,14.8
2023-05-20T19:53:09.636Z,14.7
2023-05-20T19:56:10.109Z,14.6
2023-05-20T19:59:09.413Z,14.5
2023-05-20T20:02:09.772Z,14.6
2023-05-20T20:05:09.546Z,14.5
2023-05-20T20:08:09.748Z,14.4
2023-05-20T20:11:09.480Z,14.3
2023-05-20T20:14:09.585Z,14.3
2023-05-20T20:17:09.742Z,14.4
2023-05-20T20:20:09.940Z,14.3
2023-05-20T20:23:09.553Z,14.3
2023-05-20T20:26:09.769Z,14.3
2023-05-20T20:29:09.581Z,14.3
2023-05-20T20:32:09.709Z,14.3
2023-05-20T20:35:09.649Z,14.4
2023-05-20T20:38:09.458Z,14.4
2023-05-20T20:41:09.582Z,14.4
2023-05-20T20:44:09.991Z,14.4
2023-05-20T20:47:09.982Z,14.4
2023-05-20T20:50:12.076Z,14.4
2023-05-20T20:53:09.494Z,14.5
2023-05-20T20:56:09.674Z,14.5
2023-05-20T20:59:09.582Z,14.4
2023-05-20T21:02:10.193Z,14.3
2023-05-20T21:05:11.225Z,14.1
2023-05-20T21:08:09.597Z,14.1
2023-05-20T21:11:09.751Z,14.1
2023-05-20T21:14:11.727Z,14.1
2023-05-20T21:17:09.838Z,14.0
2023-05-20T21:20:09.791Z,13.9
2023-05-20T21:23:09.594Z,13.8
2023-05-20T21:26:09.719Z,13.8
2023-05-20T21:29:09.581Z,13.9
2023-05-20T21:32:09.757Z,13.9
2023-05-20T21:35:09.491Z,13.9
2023-05-20T21:38:09.526Z,13.8
2023-05-20T21:41:09.438Z,13.8
2023-05-20T21:44:09.606Z,13.8
2023-05-20T21:47:09.816Z,13.8
2023-05-20T21:50:09.596Z,13.9
2023-05-20T21:53:09.561Z,13.9
2023-05-20T21:56:09.897Z,14.0
2023-05-20T21:59:09.613Z,13.9
2023-05-20T22:02:09.759Z,13.9
2023-05-20T22:05:12.329Z,13.7
2023-05-20T22:08:19.393Z,13.6
2023-05-20T22:11:11.764Z,13.5
2023-05-20T22:14:09.523Z,13.7
2023-05-20T22:17:10.069Z,13.7
2023-05-20T22:20:09.744Z,13.6
2023-05-20T22:23:19.428Z,13.6
2023-05-20T22:26:09.890Z,13.5
2023-05-20T22:29:09.569Z,13.5
2023-05-20T22:32:09.887Z,13.5
2023-05-20T22:35:09.624Z,13.4
2023-05-20T22:38:09.469Z,13.3
2023-05-20T22:41:09.690Z,13.2
2023-05-20T22:44:09.486Z,13.3
2023-05-20T22:47:09.954Z,13.3
2023-05-20T22:50:09.719Z,13.3
2023-05-20T22:53:09.629Z,13.2
2023-05-20T22:56:09.859Z,13.1
2023-05-20T22:59:09.440Z,12.9
2023-05-20T23:02:09.880Z,13.0
2023-05-20T23:05:09.853Z,13.1
2023-05-20T23:08:10.759Z,13.2
2023-05-20T23:11:09.652Z,13.2
2023-05-20T23:14:09.503Z,13.2
2023-05-20T23:17:09.774Z,13.1
2023-05-20T23:20:09.855Z,13.0
2023-05-20T23:23:11.386Z,13.0
2023-05-20T23:26:10.052Z,13.1
2023-05-20T23:29:09.586Z,13.0
2023-05-20T23:32:09.585Z,12.9
2023-05-20T23:35:10.689Z,12.8
2023-05-20T23:38:09.595Z,12.8
2023-05-20T23:41:11.576Z,12.6
2023-05-20T23:44:09.510Z,12.6
2023-05-20T23:47:09.742Z,12.6
2023-05-20T23:50:09.557Z,12.6
2023-05-20T23:53:09.559Z,12.4
2023-05-20T23:56:09.756Z,12.4
2023-05-20T23:59:09.443Z,12.3
